sensor_id;sensor_type;location;lat;lon;timestamp;temperature;humidity
20422;DHT22;10370;53.102;18.034;2023-02-05T10:47:01;22.30;93.10
20422;DHT22;10370;53.102;18.034;2023-02-05T10:52:24;8.10;91.20
20422;DHT22;10370;53.102;18.034;2023-02-05T10:57:48;2.70;99.90
20422;DHT22;10370;53.102;18.034;2023-02-05T11:03:16;0.50;99.90
20422;DHT22;10370;53.102;18.034;2023-02-05T11:08:42;-0.20;99.90
20422;DHT22;10370;53.102;18.034;2023-02-05T11:14:06;-0.50;99.90
20422;DHT22;10370;53.102;18.034;2023-02-05T11:19:34;-0.60;99.90
20422;DHT22;10370;53.102;18.034;2023-02-05T11:30:37;-0.80;99.90
20422;DHT22;10370;53.102;18.034;2023-02-05T11:36:22;-0.80;99.90
20422;DHT22;10370;53.102;18.034;2023-02-05T11:41:43;-0.70;99.90
20422;DHT22;10370;53.102;18.034;2023-02-05T11:47:09;-0.70;99.90
20422;DHT22;10370;53.102;18.034;2023-02-05T11:52:35;-0.70;99.90
20422;DHT22;10370;53.102;18.034;2023-02-05T11:57:59;-0.80;99.90
20422;DHT22;10370;53.102;18.034;2023-02-05T12:03:29;-0.80;99.90
20422;DHT22;10370;53.102;18.034;2023-02-05T12:08:54;-0.70;99.90
20422;DHT22;10370;53.102;18.034;2023-02-05T12:14:41;-0.50;99.90
20422;DHT22;10370;53.102;18.034;2023-02-05T12:20:47;-0.40;99.90
20422;DHT22;10370;53.102;18.034;2023-02-05T12:54:37;-0.10;99.90
20422;DHT22;10370;53.102;18.034;2023-02-05T13:00:27;-0.10;99.90
20422;DHT22;10370;53.102;18.034;2023-02-05T13:06:03;-0.20;99.90
20422;DHT22;10370;53.102;18.034;2023-02-05T13:11:40;-0.10;99.90
20422;DHT22;10370;53.102;18.034;2023-02-05T13:17:12;-0.10;99.90
20422;DHT22;10370;53.102;18.034;2023-02-05T13:22:42;-0.10;99.90
20422;DHT22;10370;53.102;18.034;2023-02-05T13:29:02;-0.10;99.90
20422;DHT22;10370;53.102;18.034;2023-02-05T13:34:28;0.00;99.90
20422;DHT22;10370;53.102;18.034;2023-02-05T13:58:21;-0.10;99.90
20422;DHT22;10370;53.102;18.034;2023-02-05T14:09:53;-0.20;99.90
20422;DHT22;10370;53.102;18.034;2023-02-05T14:20:47;-0.30;99.90
20422;DHT22;10370;53.102;18.034;2023-02-05T14:26:10;-0.40;99.90
20422;DHT22;10370;53.102;18.034;2023-02-05T14:31:46;-0.40;99.90
20422;DHT22;10370;53.102;18.034;2023-02-05T14:37:23;-0.50;99.90
20422;DHT22;10370;53.102;18.034;2023-02-05T14:42:51;-0.50;99.90
20422;DHT22;10370;53.102;18.034;2023-02-05T14:48:40;-0.50;99.90
20422;DHT22;10370;53.102;18.034;2023-02-05T14:59:41;-0.70;99.90
20422;DHT22;10370;53.102;18.034;2023-02-05T15:16:40;-0.80;99.90
20422;DHT22;10370;53.102;18.034;2023-02-05T15:22:32;-0.90;99.90
20422;DHT22;10370;53.102;18.034;2023-02-05T15:27:58;-1.00;99.90
20422;DHT22;10370;53.102;18.034;2023-02-05T15:33:38;-1.00;99.90
20422;DHT22;10370;53.102;18.034;2023-02-05T15:39:29;-0.80;99.90
20422;DHT22;10370;53.102;18.034;2023-02-05T15:44:55;-1.20;99.90
20422;DHT22;10370;53.102;18.034;2023-02-05T15:50:32;-1.20;99.90
20422;DHT22;10370;53.102;18.034;2023-02-05T16:01:46;-1.40;99.90
20422;DHT22;10370;53.102;18.034;2023-02-05T16:07:20;-1.50;99.90
20422;DHT22;10370;53.102;18.034;2023-02-05T16:13:21;-1.60;99.90
20422;DHT22;10370;53.102;18.034;2023-02-05T16:18:49;-1.80;99.90
20422;DHT22;10370;53.102;18.034;2023-02-05T16:29:54;-2.00;99.90
20422;DHT22;10370;53.102;18.034;2023-02-05T16:35:34;-2.10;99.90
20422;DHT22;10370;53.102;18.034;2023-02-05T16:40:59;-2.30;99.90
20422;DHT22;10370;53.102;18.034;2023-02-05T16:46:29;-2.30;99.90
20422;DHT22;10370;53.102;18.034;2023-02-05T16:51:53;-2.40;99.90
20422;DHT22;10370;53.102;18.034;2023-02-05T16:57:27;-2.50;99.90
20422;DHT22;10370;53.102;18.034;2023-02-05T17:02:53;-2.60;99.90
20422;DHT22;10370;53.102;18.034;2023-02-05T17:08:15;-2.70;99.90
20422;DHT22;10370;53.102;18.034;2023-02-05T17:13:42;-2.80;99.90
20422;DHT22;10370;53.102;18.034;2023-02-05T17:19:29;-2.90;99.90
20422;DHT22;10370;53.102;18.034;2023-02-05T17:24:51;-3.10;99.90
20422;DHT22;10370;53.102;18.034;2023-02-05T17:30:18;-3.10;99.90
20422;DHT22;10370;53.102;18.034;2023-02-05T17:35:42;-3.10;99.90
20422;DHT22;10370;53.102;18.034;2023-02-05T17:41:03;-3.10;99.90
20422;DHT22;10370;53.102;18.034;2023-02-05T17:46:46;-3.10;99.90
20422;DHT22;10370;53.102;18.034;2023-02-05T17:52:11;-3.20;99.90
20422;DHT22;10370;53.102;18.034;2023-02-05T17:57:34;-3.20;99.90
20422;DHT22;10370;53.102;18.034;2023-02-05T18:02:59;-3.20;99.90
20422;DHT22;10370;53.102;18.034;2023-02-05T18:08:21;-3.30;99.90
20422;DHT22;10370;53.102;18.034;2023-02-05T18:13:55;-3.40;99.90
20422;DHT22;10370;53.102;18.034;2023-02-05T18:19:20;-3.40;99.90
20422;DHT22;10370;53.102;18.034;2023-02-05T18:24:43;-3.40;99.90
20422;DHT22;10370;53.102;18.034;2023-02-05T18:30:07;-3.40;99.90
20422;DHT22;10370;53.102;18.034;2023-02-05T18:35:37;-3.50;99.90
20422;DHT22;10370;53.102;18.034;2023-02-05T18:41:12;-3.60;99.90
20422;DHT22;10370;53.102;18.034;2023-02-05T18:46:38;-3.60;99.90
20422;DHT22;10370;53.102;18.034;2023-02-05T18:52:01;-3.70;99.90
20422;DHT22;10370;53.102;18.034;2023-02-05T18:57:27;-3.90;99.90
20422;DHT22;10370;53.102;18.034;2023-02-05T19:02:52;-4.00;99.90
20422;DHT22;10370;53.102;18.034;2023-02-05T19:08:16;-4.10;99.90
20422;DHT22;10370;53.102;18.034;2023-02-05T19:13:42;-4.30;99.90
20422;DHT22;10370;53.102;18.034;2023-02-05T19:19:11;-4.50;99.90
20422;DHT22;10370;53.102;18.034;2023-02-05T19:24:38;-4.70;99.90
20422;DHT22;10370;53.102;18.034;2023-02-05T19:30:04;-4.60;99.90
20422;DHT22;10370;53.102;18.034;2023-02-05T19:35:29;-4.60;99.90
20422;DHT22;10370;53.102;18.034;2023-02-05T19:40:50;-4.60;99.90
20422;DHT22;10370;53.102;18.034;2023-02-05T19:46:13;-4.80;99.90
20422;DHT22;10370;53.102;18.034;2023-02-05T19:51:55;-4.90;99.90
20422;DHT22;10370;53.102;18.034;2023-02-05T19:57:21;-4.80;99.90
20422;DHT22;10370;53.102;18.034;2023-02-05T20:02:46;-4.80;99.90
20422;DHT22;10370;53.102;18.034;2023-02-05T20:08:11;-4.90;99.90
20422;DHT22;10370;53.102;18.034;2023-02-05T20:13:37;-4.90;99.90
20422;DHT22;10370;53.102;18.034;2023-02-05T20:19:03;-4.90;99.90
20422;DHT22;10370;53.102;18.034;2023-02-05T20:30:29;-5.20;99.90
20422;DHT22;10370;53.102;18.034;2023-02-05T20:36:11;-5.20;99.90
20422;DHT22;10370;53.102;18.034;2023-02-05T20:41:32;-5.20;99.90
20422;DHT22;10370;53.102;18.034;2023-02-05T20:46:56;-5.30;99.90
20422;DHT22;10370;53.102;18.034;2023-02-05T20:52:17;-5.40;99.90
20422;DHT22;10370;53.102;18.034;2023-02-05T20:57:39;-5.40;99.90
20422;DHT22;10370;53.102;18.034;2023-02-05T21:03:00;-5.50;99.90
20422;DHT22;10370;53.102;18.034;2023-02-05T21:08:28;-5.50;99.90
20422;DHT22;10370;53.102;18.034;2023-02-05T21:14:05;-5.50;99.90
20422;DHT22;10370;53.102;18.034;2023-02-05T21:19:27;-5.70;99.90
20422;DHT22;10370;53.102;18.034;2023-02-05T21:24:50;-5.70;99.90
20422;DHT22;10370;53.102;18.034;2023-02-05T21:30:11;-5.70;99.90
20422;DHT22;10370;53.102;18.034;2023-02-05T21:35:36;-5.60;99.90
20422;DHT22;10370;53.102;18.034;2023-02-05T21:41:16;-5.50;99.90
20422;DHT22;10370;53.102;18.034;2023-02-05T21:46:39;-5.60;99.90
20422;DHT22;10370;53.102;18.034;2023-02-05T21:52:03;-5.50;99.90
20422;DHT22;10370;53.102;18.034;2023-02-05T21:57:27;-5.50;99.90
20422;DHT22;10370;53.102;18.034;2023-02-05T22:02:52;-5.50;99.90
20422;DHT22;10370;53.102;18.034;2023-02-05T22:08:15;-5.50;99.90
20422;DHT22;10370;53.102;18.034;2023-02-05T22:13:40;-5.50;99.90
20422;DHT22;10370;53.102;18.034;2023-02-05T22:19:05;-5.30;99.90
20422;DHT22;10370;53.102;18.034;2023-02-05T22:24:28;-5.20;99.90
20422;DHT22;10370;53.102;18.034;2023-02-05T22:29:53;-5.20;99.90
20422;DHT22;10370;53.102;18.034;2023-02-05T22:35:19;-5.10;99.90
20422;DHT22;10370;53.102;18.034;2023-02-05T22:40:46;-5.20;99.90
20422;DHT22;10370;53.102;18.034;2023-02-05T22:46:15;-5.10;99.90
20422;DHT22;10370;53.102;18.034;2023-02-05T22:51:41;-5.10;99.90
20422;DHT22;10370;53.102;18.034;2023-02-05T22:57:06;-5.00;99.90
20422;DHT22;10370;53.102;18.034;2023-02-05T23:02:30;-5.00;99.90
20422;DHT22;10370;53.102;18.034;2023-02-05T23:07:56;-5.10;99.90
20422;DHT22;10370;53.102;18.034;2023-02-05T23:13:29;-5.10;99.90
20422;DHT22;10370;53.102;18.034;2023-02-05T23:18:59;-5.10;99.90
20422;DHT22;10370;53.102;18.034;2023-02-05T23:24:25;-5.20;99.90
20422;DHT22;10370;53.102;18.034;2023-02-05T23:29:52;-5.30;99.90
20422;DHT22;10370;53.102;18.034;2023-02-05T23:35:18;-5.30;99.90
20422;DHT22;10370;53.102;18.034;2023-02-05T23:40:43;-5.30;99.90
20422;DHT22;10370;53.102;18.034;2023-02-05T23:46:08;-5.30;99.90
20422;DHT22;10370;53.102;18.034;2023-02-05T23:51:33;-5.30;99.90
20422;DHT22;10370;53.102;18.034;2023-02-05T23:56:56;-5.40;99.90
